sensor_id;sensor_type;location;lat;lon;timestamp;temperature;humidity
22607;DHT22;11470;20.968;105.834;2023-06-14T00:02:52;27.70;99.90
22607;DHT22;11470;20.968;105.834;2023-06-14T00:08:00;27.80;99.90
22607;DHT22;11470;20.968;105.834;2023-06-14T00:13:06;27.90;99.90
22607;DHT22;11470;20.968;105.834;2023-06-14T00:18:15;28.00;99.90
22607;DHT22;11470;20.968;105.834;2023-06-14T00:23:21;28.00;99.90
22607;DHT22;11470;20.968;105.834;2023-06-14T00:28:27;28.10;99.90
22607;DHT22;11470;20.968;105.834;2023-06-14T00:33:33;28.30;99.90
22607;DHT22;11470;20.968;105.834;2023-06-14T00:38:40;28.40;99.90
22607;DHT22;11470;20.968;105.834;2023-06-14T00:43:47;28.60;99.90
22607;DHT22;11470;20.968;105.834;2023-06-14T00:48:53;28.80;99.90
22607;DHT22;11470;20.968;105.834;2023-06-14T00:53:59;28.90;99.90
22607;DHT22;11470;20.968;105.834;2023-06-14T00:59:05;29.10;99.90
22607;DHT22;11470;20.968;105.834;2023-06-14T01:04:11;29.40;99.90
22607;DHT22;11470;20.968;105.834;2023-06-14T01:14:26;29.40;99.90
22607;DHT22;11470;20.968;105.834;2023-06-14T01:19:33;29.40;99.90
22607;DHT22;11470;20.968;105.834;2023-06-14T01:24:39;29.40;99.90
22607;DHT22;11470;20.968;105.834;2023-06-14T01:29:51;29.30;99.90
22607;DHT22;11470;20.968;105.834;2023-06-14T01:35:01;29.00;99.90
22607;DHT22;11470;20.968;105.834;2023-06-14T01:40:10;28.80;99.90
22607;DHT22;11470;20.968;105.834;2023-06-14T01:45:17;28.80;99.90
22607;DHT22;11470;20.968;105.834;2023-06-14T01:50:24;28.80;99.90
22607;DHT22;11470;20.968;105.834;2023-06-14T01:55:33;28.80;99.90
22607;DHT22;11470;20.968;105.834;2023-06-14T02:00:44;28.90;99.90
22607;DHT22;11470;20.968;105.834;2023-06-14T02:05:53;29.00;99.90
22607;DHT22;11470;20.968;105.834;2023-06-14T02:11:00;28.90;99.90
22607;DHT22;11470;20.968;105.834;2023-06-14T02:16:05;28.80;99.90
22607;DHT22;11470;20.968;105.834;2023-06-14T02:21:14;28.90;99.90
22607;DHT22;11470;20.968;105.834;2023-06-14T02:26:21;29.00;99.90
22607;DHT22;11470;20.968;105.834;2023-06-14T02:31:27;28.90;99.90
22607;DHT22;11470;20.968;105.834;2023-06-14T02:36:34;28.80;99.90
22607;DHT22;11470;20.968;105.834;2023-06-14T02:41:46;28.80;99.90
22607;DHT22;11470;20.968;105.834;2023-06-14T02:46:52;29.00;99.90
22607;DHT22;11470;20.968;105.834;2023-06-14T02:52:25;29.10;99.90
22607;DHT22;11470;20.968;105.834;2023-06-14T02:58:59;29.30;99.90
22607;DHT22;11470;20.968;105.834;2023-06-14T03:04:23;29.40;99.90
22607;DHT22;11470;20.968;105.834;2023-06-14T03:09:30;29.40;99.90
22607;DHT22;11470;20.968;105.834;2023-06-14T03:14:36;29.00;99.90
22607;DHT22;11470;20.968;105.834;2023-06-14T03:19:44;28.80;99.90
22607;DHT22;11470;20.968;105.834;2023-06-14T03:24:54;28.80;99.90
22607;DHT22;11470;20.968;105.834;2023-06-14T03:29:59;28.80;99.90
22607;DHT22;11470;20.968;105.834;2023-06-14T03:35:07;28.90;99.90
22607;DHT22;11470;20.968;105.834;2023-06-14T03:40:17;28.90;99.90
22607;DHT22;11470;20.968;105.834;2023-06-14T03:45:28;28.70;99.90
22607;DHT22;11470;20.968;105.834;2023-06-14T03:50:35;28.60;99.90
22607;DHT22;11470;20.968;105.834;2023-06-14T03:55:43;28.50;99.90
22607;DHT22;11470;20.968;105.834;2023-06-14T04:00:52;28.40;99.90
22607;DHT22;11470;20.968;105.834;2023-06-14T04:06:00;28.40;99.90
22607;DHT22;11470;20.968;105.834;2023-06-14T04:11:06;28.40;99.90
22607;DHT22;11470;20.968;105.834;2023-06-14T04:16:13;28.50;99.90
22607;DHT22;11470;20.968;105.834;2023-06-14T04:21:19;28.70;99.90
22607;DHT22;11470;20.968;105.834;2023-06-14T04:26:27;28.70;99.90
22607;DHT22;11470;20.968;105.834;2023-06-14T04:31:36;28.50;99.90
22607;DHT22;11470;20.968;105.834;2023-06-14T04:36:45;28.10;99.90
22607;DHT22;11470;20.968;105.834;2023-06-14T04:41:54;27.40;99.90
22607;DHT22;11470;20.968;105.834;2023-06-14T04:47:03;26.80;99.90
22607;DHT22;11470;20.968;105.834;2023-06-14T04:52:09;27.00;99.90
22607;DHT22;11470;20.968;105.834;2023-06-14T04:57:20;26.90;99.90
22607;DHT22;11470;20.968;105.834;2023-06-14T05:02:30;27.00;99.90
22607;DHT22;11470;20.968;105.834;2023-06-14T05:07:36;27.60;99.90
22607;DHT22;11470;20.968;105.834;2023-06-14T05:12:44;28.90;99.90
22607;DHT22;11470;20.968;105.834;2023-06-14T05:17:52;30.00;99.90
22607;DHT22;11470;20.968;105.834;2023-06-14T05:22:59;30.90;99.90
22607;DHT22;11470;20.968;105.834;2023-06-14T05:28:06;30.80;99.90
22607;DHT22;11470;20.968;105.834;2023-06-14T05:33:12;30.40;99.90
22607;DHT22;11470;20.968;105.834;2023-06-14T05:38:17;30.40;99.90
22607;DHT22;11470;20.968;105.834;2023-06-14T05:43:23;30.20;99.90
22607;DHT22;11470;20.968;105.834;2023-06-14T05:48:31;29.70;99.90
22607;DHT22;11470;20.968;105.834;2023-06-14T05:53:37;29.10;99.90
22607;DHT22;11470;20.968;105.834;2023-06-14T05:58:44;28.90;99.90
22607;DHT22;11470;20.968;105.834;2023-06-14T06:03:49;28.90;99.90
22607;DHT22;11470;20.968;105.834;2023-06-14T06:08:56;29.00;99.90
22607;DHT22;11470;20.968;105.834;2023-06-14T06:14:05;29.00;99.90
22607;DHT22;11470;20.968;105.834;2023-06-14T06:19:11;28.60;99.90
22607;DHT22;11470;20.968;105.834;2023-06-14T06:24:16;28.60;99.90
22607;DHT22;11470;20.968;105.834;2023-06-14T06:29:22;28.80;99.90
22607;DHT22;11470;20.968;105.834;2023-06-14T06:34:28;29.00;99.90
22607;DHT22;11470;20.968;105.834;2023-06-14T06:39:34;29.00;99.90
22607;DHT22;11470;20.968;105.834;2023-06-14T06:44:39;29.00;99.90
22607;DHT22;11470;20.968;105.834;2023-06-14T06:49:45;28.90;99.90
22607;DHT22;11470;20.968;105.834;2023-06-14T06:54:51;29.00;99.90
22607;DHT22;11470;20.968;105.834;2023-06-14T07:00:00;28.90;99.90
22607;DHT22;11470;20.968;105.834;2023-06-14T07:05:05;29.00;99.90
22607;DHT22;11470;20.968;105.834;2023-06-14T07:10:12;29.40;99.90
22607;DHT22;11470;20.968;105.834;2023-06-14T07:15:18;29.90;99.90
22607;DHT22;11470;20.968;105.834;2023-06-14T07:20:24;30.20;99.90
22607;DHT22;11470;20.968;105.834;2023-06-14T07:25:29;30.40;99.90
22607;DHT22;11470;20.968;105.834;2023-06-14T07:30:36;30.40;99.90
22607;DHT22;11470;20.968;105.834;2023-06-14T07:35:41;30.20;99.90
22607;DHT22;11470;20.968;105.834;2023-06-14T07:40:47;30.00;99.90
22607;DHT22;11470;20.968;105.834;2023-06-14T07:45:53;29.80;99.90
22607;DHT22;11470;20.968;105.834;2023-06-14T07:51:09;29.70;99.90
22607;DHT22;11470;20.968;105.834;2023-06-14T07:56:15;29.70;99.90
22607;DHT22;11470;20.968;105.834;2023-06-14T08:01:21;29.80;99.90
22607;DHT22;11470;20.968;105.834;2023-06-14T08:06:30;29.90;99.90
22607;DHT22;11470;20.968;105.834;2023-06-14T08:11:36;30.00;99.90
22607;DHT22;11470;20.968;105.834;2023-06-14T08:16:41;30.30;99.90
22607;DHT22;11470;20.968;105.834;2023-06-14T08:21:47;30.60;99.90
22607;DHT22;11470;20.968;105.834;2023-06-14T08:26:53;31.20;99.90
22607;DHT22;11470;20.968;105.834;2023-06-14T08:31:58;32.30;99.90
22607;DHT22;11470;20.968;105.834;2023-06-14T08:37:05;34.50;99.90
22607;DHT22;11470;20.968;105.834;2023-06-14T08:42:13;35.60;99.90
22607;DHT22;11470;20.968;105.834;2023-06-14T08:47:34;35.30;99.90
22607;DHT22;11470;20.968;105.834;2023-06-14T08:52:46;34.40;99.90
22607;DHT22;11470;20.968;105.834;2023-06-14T08:57:56;34.10;99.90
22607;DHT22;11470;20.968;105.834;2023-06-14T09:03:03;34.20;99.90
22607;DHT22;11470;20.968;105.834;2023-06-14T09:08:11;34.00;99.90
22607;DHT22;11470;20.968;105.834;2023-06-14T09:13:17;33.40;99.90
22607;DHT22;11470;20.968;105.834;2023-06-14T09:18:37;32.60;99.90
22607;DHT22;11470;20.968;105.834;2023-06-14T09:23:45;31.80;99.90
22607;DHT22;11470;20.968;105.834;2023-06-14T09:28:51;31.50;99.90
22607;DHT22;11470;20.968;105.834;2023-06-14T09:34:02;31.40;99.90
22607;DHT22;11470;20.968;105.834;2023-06-14T09:39:08;31.20;99.90
22607;DHT22;11470;20.968;105.834;2023-06-14T09:44:14;31.10;99.90
22607;DHT22;11470;20.968;105.834;2023-06-14T09:49:24;31.10;99.90
22607;DHT22;11470;20.968;105.834;2023-06-14T09:54:40;31.00;99.90
22607;DHT22;11470;20.968;105.834;2023-06-14T09:59:49;30.90;99.90
22607;DHT22;11470;20.968;105.834;2023-06-14T10:05:09;30.50;99.90
22607;DHT22;11470;20.968;105.834;2023-06-14T10:10:17;30.30;99.90
22607;DHT22;11470;20.968;105.834;2023-06-14T10:20:49;30.30;99.90
22607;DHT22;11470;20.968;105.834;2023-06-14T10:26:00;30.40;99.90
22607;DHT22;11470;20.968;105.834;2023-06-14T10:31:11;30.50;99.90
22607;DHT22;11470;20.968;105.834;2023-06-14T10:41:29;30.30;99.90
22607;DHT22;11470;20.968;105.834;2023-06-14T10:46:35;30.30;99.90
22607;DHT22;11470;20.968;105.834;2023-06-14T10:51:43;30.20;99.90
22607;DHT22;11470;20.968;105.834;2023-06-14T10:56:54;30.10;99.90
22607;DHT22;11470;20.968;105.834;2023-06-14T11:12:50;29.80;99.90
22607;DHT22;11470;20.968;105.834;2023-06-14T11:18:03;29.80;99.90
22607;DHT22;11470;20.968;105.834;2023-06-14T11:23:09;29.60;99.90
22607;DHT22;11470;20.968;105.834;2023-06-14T11:28:15;29.50;99.90
22607;DHT22;11470;20.968;105.834;2023-06-14T11:33:24;29.40;99.90
22607;DHT22;11470;20.968;105.834;2023-06-14T11:38:30;29.30;99.90
22607;DHT22;11470;20.968;105.834;2023-06-14T11:43:40;29.20;99.90
22607;DHT22;11470;20.968;105.834;2023-06-14T11:48:46;29.20;99.90
22607;DHT22;11470;20.968;105.834;2023-06-14T11:53:52;29.20;99.90
22607;DHT22;11470;20.968;105.834;2023-06-14T11:58:58;29.30;99.90
22607;DHT22;11470;20.968;105.834;2023-06-14T12:04:04;29.30;99.90
22607;DHT22;11470;20.968;105.834;2023-06-14T12:09:10;29.20;99.90
22607;DHT22;11470;20.968;105.834;2023-06-14T12:14:19;29.20;99.90
22607;DHT22;11470;20.968;105.834;2023-06-14T12:19:26;29.20;99.90
22607;DHT22;11470;20.968;105.834;2023-06-14T12:24:33;29.20;99.90
22607;DHT22;11470;20.968;105.834;2023-06-14T12:29:39;29.20;99.90
22607;DHT22;11470;20.968;105.834;2023-06-14T12:34:44;29.30;99.90
22607;DHT22;11470;20.968;105.834;2023-06-14T12:39:51;29.30;99.90
22607;DHT22;11470;20.968;105.834;2023-06-14T12:44:57;29.30;99.90
22607;DHT22;11470;20.968;105.834;2023-06-14T12:50:03;29.30;99.90
22607;DHT22;11470;20.968;105.834;2023-06-14T12:55:10;29.40;99.90
22607;DHT22;11470;20.968;105.834;2023-06-14T13:00:16;29.40;99.90
22607;DHT22;11470;20.968;105.834;2023-06-14T13:05:23;29.40;99.90
22607;DHT22;11470;20.968;105.834;2023-06-14T13:10:29;29.20;99.90
22607;DHT22;11470;20.968;105.834;2023-06-14T13:15:35;29.20;99.90
22607;DHT22;11470;20.968;105.834;2023-06-14T13:20:41;29.40;99.90
22607;DHT22;11470;20.968;105.834;2023-06-14T13:25:50;29.50;99.90
22607;DHT22;11470;20.968;105.834;2023-06-14T13:30:56;29.50;99.90
22607;DHT22;11470;20.968;105.834;2023-06-14T13:36:01;29.70;99.90
22607;DHT22;11470;20.968;105.834;2023-06-14T13:41:09;29.80;99.90
22607;DHT22;11470;20.968;105.834;2023-06-14T13:46:15;29.60;99.90
22607;DHT22;11470;20.968;105.834;2023-06-14T13:51:21;29.40;99.90
22607;DHT22;11470;20.968;105.834;2023-06-14T13:56:27;29.30;99.90
22607;DHT22;11470;20.968;105.834;2023-06-14T14:01:34;29.00;99.90
22607;DHT22;11470;20.968;105.834;2023-06-14T14:06:39;28.90;99.90
22607;DHT22;11470;20.968;105.834;2023-06-14T14:11:44;28.70;99.90
22607;DHT22;11470;20.968;105.834;2023-06-14T14:16:50;28.40;99.90
22607;DHT22;11470;20.968;105.834;2023-06-14T14:21:59;28.20;99.90
22607;DHT22;11470;20.968;105.834;2023-06-14T14:27:06;27.70;99.90
22607;DHT22;11470;20.968;105.834;2023-06-14T14:32:13;27.30;99.90
22607;DHT22;11470;20.968;105.834;2023-06-14T14:37:19;27.40;99.90
22607;DHT22;11470;20.968;105.834;2023-06-14T14:42:26;27.20;99.90
22607;DHT22;11470;20.968;105.834;2023-06-14T14:47:32;27.00;99.90
22607;DHT22;11470;20.968;105.834;2023-06-14T14:52:39;27.00;99.90
22607;DHT22;11470;20.968;105.834;2023-06-14T14:57:46;27.20;99.90
22607;DHT22;11470;20.968;105.834;2023-06-14T15:02:54;27.00;99.90
22607;DHT22;11470;20.968;105.834;2023-06-14T15:08:04;27.00;99.90
22607;DHT22;11470;20.968;105.834;2023-06-14T15:13:15;27.00;99.90
22607;DHT22;11470;20.968;105.834;2023-06-14T15:18:21;26.90;99.90
22607;DHT22;11470;20.968;105.834;2023-06-14T15:23:27;26.80;99.90
22607;DHT22;11470;20.968;105.834;2023-06-14T15:28:33;26.90;99.90
22607;DHT22;11470;20.968;105.834;2023-06-14T15:33:38;26.90;99.90
22607;DHT22;11470;20.968;105.834;2023-06-14T15:38:44;26.90;99.90
22607;DHT22;11470;20.968;105.834;2023-06-14T15:43:50;26.90;99.90
22607;DHT22;11470;20.968;105.834;2023-06-14T15:48:57;26.90;99.90
22607;DHT22;11470;20.968;105.834;2023-06-14T15:54:02;26.90;99.90
22607;DHT22;11470;20.968;105.834;2023-06-14T15:59:08;26.80;99.90
22607;DHT22;11470;20.968;105.834;2023-06-14T16:04:14;26.80;99.90
22607;DHT22;11470;20.968;105.834;2023-06-14T16:09:21;26.80;99.90
22607;DHT22;11470;20.968;105.834;2023-06-14T16:14:28;26.90;99.90
22607;DHT22;11470;20.968;105.834;2023-06-14T16:19:40;27.10;99.90
22607;DHT22;11470;20.968;105.834;2023-06-14T16:24:46;27.30;99.90
22607;DHT22;11470;20.968;105.834;2023-06-14T16:30:21;27.30;99.90
22607;DHT22;11470;20.968;105.834;2023-06-14T16:35:27;27.30;99.90
22607;DHT22;11470;20.968;105.834;2023-06-14T16:40:33;27.40;99.90
22607;DHT22;11470;20.968;105.834;2023-06-14T16:45:41;27.40;99.90
22607;DHT22;11470;20.968;105.834;2023-06-14T16:50:48;27.50;99.90
22607;DHT22;11470;20.968;105.834;2023-06-14T16:55:53;27.30;99.90
22607;DHT22;11470;20.968;105.834;2023-06-14T17:01:00;27.00;99.90
22607;DHT22;11470;20.968;105.834;2023-06-14T17:06:05;27.10;99.90
22607;DHT22;11470;20.968;105.834;2023-06-14T17:11:11;27.20;99.90
22607;DHT22;11470;20.968;105.834;2023-06-14T17:16:17;27.20;99.90
22607;DHT22;11470;20.968;105.834;2023-06-14T17:21:23;27.20;99.90
22607;DHT22;11470;20.968;105.834;2023-06-14T17:26:28;27.30;99.90
22607;DHT22;11470;20.968;105.834;2023-06-14T17:31:34;27.10;99.90
22607;DHT22;11470;20.968;105.834;2023-06-14T17:36:40;26.90;99.90
22607;DHT22;11470;20.968;105.834;2023-06-14T17:41:46;26.70;99.90
22607;DHT22;11470;20.968;105.834;2023-06-14T17:46:51;26.70;99.90
22607;DHT22;11470;20.968;105.834;2023-06-14T17:51:57;26.70;99.90
22607;DHT22;11470;20.968;105.834;2023-06-14T17:57:02;26.70;99.90
22607;DHT22;11470;20.968;105.834;2023-06-14T18:02:09;26.70;99.90
22607;DHT22;11470;20.968;105.834;2023-06-14T18:07:14;26.60;99.90
22607;DHT22;11470;20.968;105.834;2023-06-14T18:12:20;26.60;99.90
22607;DHT22;11470;20.968;105.834;2023-06-14T18:17:26;26.60;99.90
22607;DHT22;11470;20.968;105.834;2023-06-14T18:22:31;26.60;99.90
22607;DHT22;11470;20.968;105.834;2023-06-14T18:27:37;26.80;99.90
22607;DHT22;11470;20.968;105.834;2023-06-14T18:32:44;26.80;99.90
22607;DHT22;11470;20.968;105.834;2023-06-14T18:37:53;26.80;99.90
22607;DHT22;11470;20.968;105.834;2023-06-14T18:42:58;26.60;99.90
22607;DHT22;11470;20.968;105.834;2023-06-14T18:48:04;26.50;99.90
22607;DHT22;11470;20.968;105.834;2023-06-14T18:53:10;26.50;99.90
22607;DHT22;11470;20.968;105.834;2023-06-14T18:58:16;26.50;99.90
22607;DHT22;11470;20.968;105.834;2023-06-14T19:03:22;26.50;99.90
22607;DHT22;11470;20.968;105.834;2023-06-14T19:08:28;26.50;99.90
22607;DHT22;11470;20.968;105.834;2023-06-14T19:13:33;26.50;99.90
22607;DHT22;11470;20.968;105.834;2023-06-14T19:18:40;26.50;99.90
22607;DHT22;11470;20.968;105.834;2023-06-14T19:23:45;26.50;99.90
22607;DHT22;11470;20.968;105.834;2023-06-14T19:28:54;26.50;99.90
22607;DHT22;11470;20.968;105.834;2023-06-14T19:34:03;26.40;99.90
22607;DHT22;11470;20.968;105.834;2023-06-14T19:39:09;26.40;99.90
22607;DHT22;11470;20.968;105.834;2023-06-14T19:44:14;26.40;99.90
22607;DHT22;11470;20.968;105.834;2023-06-14T19:49:20;26.50;99.90
22607;DHT22;11470;20.968;105.834;2023-06-14T19:54:26;26.60;99.90
22607;DHT22;11470;20.968;105.834;2023-06-14T19:59:32;26.70;99.90
22607;DHT22;11470;20.968;105.834;2023-06-14T20:04:38;26.70;99.90
22607;DHT22;11470;20.968;105.834;2023-06-14T20:09:43;26.80;99.90
22607;DHT22;11470;20.968;105.834;2023-06-14T20:14:49;26.80;99.90
22607;DHT22;11470;20.968;105.834;2023-06-14T20:19:55;26.70;99.90
22607;DHT22;11470;20.968;105.834;2023-06-14T20:25:01;26.60;99.90
22607;DHT22;11470;20.968;105.834;2023-06-14T20:30:07;26.50;99.90
22607;DHT22;11470;20.968;105.834;2023-06-14T20:35:13;26.40;99.90
22607;DHT22;11470;20.968;105.834;2023-06-14T20:40:20;26.40;99.90
22607;DHT22;11470;20.968;105.834;2023-06-14T20:45:26;26.40;99.90
22607;DHT22;11470;20.968;105.834;2023-06-14T20:50:31;26.40;99.90
22607;DHT22;11470;20.968;105.834;2023-06-14T20:55:37;26.30;99.90
22607;DHT22;11470;20.968;105.834;2023-06-14T21:00:46;26.40;99.90
22607;DHT22;11470;20.968;105.834;2023-06-14T21:05:51;26.40;99.90
22607;DHT22;11470;20.968;105.834;2023-06-14T21:10:58;26.50;99.90
22607;DHT22;11470;20.968;105.834;2023-06-14T21:16:04;26.50;99.90
22607;DHT22;11470;20.968;105.834;2023-06-14T21:21:10;26.50;99.90
22607;DHT22;11470;20.968;105.834;2023-06-14T21:26:16;26.40;99.90
22607;DHT22;11470;20.968;105.834;2023-06-14T21:31:22;26.50;99.90
22607;DHT22;11470;20.968;105.834;2023-06-14T21:36:27;26.60;99.90
22607;DHT22;11470;20.968;105.834;2023-06-14T21:41:33;26.60;99.90
22607;DHT22;11470;20.968;105.834;2023-06-14T21:46:42;26.60;99.90
22607;DHT22;11470;20.968;105.834;2023-06-14T21:51:48;26.60;99.90
22607;DHT22;11470;20.968;105.834;2023-06-14T21:56:54;26.60;99.90
22607;DHT22;11470;20.968;105.834;2023-06-14T22:02:00;26.60;99.90
22607;DHT22;11470;20.968;105.834;2023-06-14T22:07:06;26.70;99.90
22607;DHT22;11470;20.968;105.834;2023-06-14T22:12:13;26.70;99.90
22607;DHT22;11470;20.968;105.834;2023-06-14T22:17:20;26.60;99.90
22607;DHT22;11470;20.968;105.834;2023-06-14T22:22:31;26.50;99.90
22607;DHT22;11470;20.968;105.834;2023-06-14T22:27:43;26.50;99.90
22607;DHT22;11470;20.968;105.834;2023-06-14T22:32:51;26.60;99.90
22607;DHT22;11470;20.968;105.834;2023-06-14T22:37:58;26.60;99.90
22607;DHT22;11470;20.968;105.834;2023-06-14T22:43:05;26.50;99.90
22607;DHT22;11470;20.968;105.834;2023-06-14T22:48:12;26.70;99.90
22607;DHT22;11470;20.968;105.834;2023-06-14T22:53:18;26.80;99.90
22607;DHT22;11470;20.968;105.834;2023-06-14T22:58:24;26.80;99.90
22607;DHT22;11470;20.968;105.834;2023-06-14T23:03:30;26.90;99.90
22607;DHT22;11470;20.968;105.834;2023-06-14T23:08:37;26.90;99.90
22607;DHT22;11470;20.968;105.834;2023-06-14T23:13:49;26.90;99.90
22607;DHT22;11470;20.968;105.834;2023-06-14T23:19:00;27.00;99.90
22607;DHT22;11470;20.968;105.834;2023-06-14T23:24:06;27.00;99.90
22607;DHT22;11470;20.968;105.834;2023-06-14T23:29:12;27.00;99.90
22607;DHT22;11470;20.968;105.834;2023-06-14T23:34:23;27.00;99.90
22607;DHT22;11470;20.968;105.834;2023-06-14T23:39:30;27.10;99.90
22607;DHT22;11470;20.968;105.834;2023-06-14T23:44:37;27.20;99.90
22607;DHT22;11470;20.968;105.834;2023-06-14T23:49:45;27.50;99.90
22607;DHT22;11470;20.968;105.834;2023-06-14T23:54:50;27.50;99.90
22607;DHT22;11470;20.968;105.834;2023-06-14T23:59:57;27.60;99.90
